createdAt,value
2022-11-18T00:01:02.146Z,5
2022-11-18T00:06:55.427Z,4
2022-11-18T00:12:55.107Z,4
2022-11-18T00:18:51.217Z,5
2022-11-18T00:24:53.077Z,4
2022-11-18T00:30:59.168Z,4
2022-11-18T00:36:59.619Z,4
2022-11-18T00:42:59.425Z,4
2022-11-18T00:49:03.112Z,5
2022-11-18T00:54:51.628Z,4
2022-11-18T01:01:06.354Z,3
2022-11-18T01:06:48.544Z,3
2022-11-18T01:12:53.981Z,3
2022-11-18T01:18:45.725Z,4
2022-11-18T01:24:47.861Z,4
2022-11-18T01:30:48.207Z,8
2022-11-18T01:36:51.373Z,6
2022-11-18T01:42:58.574Z,3
2022-11-18T01:48:48.036Z,4
2022-11-18T01:54:47.478Z,5
2022-11-18T02:00:57.558Z,4
2022-11-18T02:06:50.271Z,4
2022-11-18T02:12:49.023Z,4
2022-11-18T02:18:43.422Z,3
2022-11-18T02:24:43.350Z,3
2022-11-18T02:30:43.363Z,4
2022-11-18T02:36:44.122Z,3
2022-11-18T02:42:48.661Z,5
2022-11-18T02:48:43.885Z,4
2022-11-18T02:54:45.382Z,4
2022-11-18T03:01:06.221Z,3
2022-11-18T03:06:47.998Z,3
2022-11-18T03:12:45.013Z,5
2022-11-18T03:18:43.304Z,5
2022-11-18T03:24:43.712Z,4
2022-11-18T03:30:52.176Z,4
2022-11-18T03:36:51.363Z,6
2022-11-18T03:42:54.282Z,5
2022-11-18T03:48:44.915Z,3
2022-11-18T03:55:00.476Z,3
2022-11-18T04:00:55.483Z,4
2022-11-18T04:06:50.270Z,5
2022-11-18T04:12:43.492Z,4
2022-11-18T04:18:49.790Z,5
2022-11-18T04:24:44.815Z,4
2022-11-18T04:31:00.116Z,4
2022-11-18T04:37:00.270Z,4
2022-11-18T04:42:50.673Z,6
2022-11-18T04:48:51.768Z,4
2022-11-18T04:54:57.679Z,4
2022-11-18T05:00:58.014Z,3
2022-11-18T05:06:44.455Z,4
2022-11-18T05:12:46.173Z,6
2022-11-18T05:18:45.059Z,5
2022-11-18T05:24:51.075Z,5
2022-11-18T05:30:54.246Z,4
2022-11-18T05:36:53.129Z,3
2022-11-18T05:42:49.705Z,6
2022-11-18T05:48:48.078Z,4
2022-11-18T05:54:50.555Z,4
2022-11-18T06:00:57.391Z,6
2022-11-18T06:06:46.360Z,8
2022-11-18T06:12:45.806Z,5
2022-11-18T06:18:44.172Z,5
2022-11-18T06:24:46.105Z,5
2022-11-18T06:30:59.224Z,5
2022-11-18T06:36:57.771Z,5
2022-11-18T06:42:44.440Z,5
2022-11-18T06:48:45.893Z,6
2022-11-18T06:54:44.191Z,7
2022-11-18T07:00:58.861Z,7
2022-11-18T07:06:43.887Z,5
2022-11-18T07:12:51.801Z,6
2022-11-18T07:18:46.109Z,7
2022-11-18T07:24:45.462Z,12
2022-11-18T07:30:55.538Z,7
2022-11-18T07:36:44.838Z,6
2022-11-18T07:42:48.305Z,8
2022-11-18T07:48:43.863Z,11
2022-11-18T07:54:45.728Z,6
2022-11-18T08:01:00.433Z,8
2022-11-18T08:06:48.031Z,7
2022-11-18T08:12:46.488Z,8
2022-11-18T08:18:44.589Z,12
2022-11-18T08:24:45.692Z,15
2022-11-18T08:31:00.570Z,12
2022-11-18T08:36:47.840Z,8
2022-11-18T08:42:44.092Z,6
2022-11-18T08:48:44.278Z,8
2022-11-18T08:54:44.438Z,9
2022-11-18T09:00:58.026Z,11
2022-11-18T09:06:46.269Z,7
2022-11-18T09:12:49.301Z,11
2022-11-18T09:18:49.085Z,13
2022-11-18T09:24:44.074Z,14
2022-11-18T09:30:55.991Z,9
2022-11-18T09:36:48.371Z,10
2022-11-18T09:42:45.379Z,10
2022-11-18T09:48:43.448Z,10
2022-11-18T09:54:45.235Z,7
2022-11-18T10:00:58.644Z,9
2022-11-18T10:06:43.617Z,10
2022-11-18T10:12:44.456Z,10
2022-11-18T10:19:00.632Z,10
2022-11-18T10:24:43.360Z,10
2022-11-18T10:30:50.405Z,4
2022-11-18T10:36:47.276Z,4
2022-11-18T10:42:44.507Z,4
2022-11-18T10:48:56.510Z,3
2022-11-18T10:54:45.699Z,4
2022-11-18T11:00:56.915Z,6
2022-11-18T11:06:44.025Z,4
2022-11-18T11:12:45.683Z,3
2022-11-18T11:18:44.700Z,4
2022-11-18T11:24:48.522Z,3
2022-11-18T11:30:51.420Z,2
2022-11-18T11:36:44.044Z,4
2022-11-18T11:42:43.889Z,3
2022-11-18T11:48:43.343Z,3
2022-11-18T11:54:43.608Z,3
2022-11-18T12:00:53.864Z,3
2022-11-18T12:06:43.927Z,5
2022-11-18T12:12:44.195Z,2
2022-11-18T12:18:43.614Z,2
2022-11-18T12:24:43.424Z,4
2022-11-18T12:30:48.337Z,3
2022-11-18T12:36:43.827Z,3
2022-11-18T12:42:43.491Z,3
2022-11-18T12:48:43.811Z,5
2022-11-18T12:54:43.474Z,2
2022-11-18T13:00:57.258Z,2
2022-11-18T13:06:48.559Z,2
2022-11-18T13:12:44.381Z,3
2022-11-18T13:18:47.177Z,2
2022-11-18T13:24:43.743Z,3
2022-11-18T13:30:49.628Z,2
2022-11-18T13:36:46.815Z,2
2022-11-18T13:42:45.934Z,2
2022-11-18T13:48:48.201Z,5
2022-11-18T13:54:44.847Z,5
2022-11-18T14:00:57.257Z,3
2022-11-18T14:06:53.188Z,2
2022-11-18T14:12:43.860Z,3
2022-11-18T14:18:55.070Z,6
2022-11-18T14:24:53.624Z,3
2022-11-18T14:30:56.153Z,4
2022-11-18T14:36:44.134Z,4
2022-11-18T14:42:59.350Z,3
2022-11-18T14:48:53.741Z,4
2022-11-18T14:54:56.726Z,3
2022-11-18T15:00:56.216Z,3
2022-11-18T15:06:47.537Z,4
2022-11-18T15:12:52.361Z,5
2022-11-18T15:18:53.075Z,7
2022-11-18T15:24:57.202Z,6
2022-11-18T15:30:59.709Z,5
2022-11-18T15:36:52.272Z,9
2022-11-18T15:42:51.849Z,12
2022-11-18T15:48:45.944Z,9
2022-11-18T15:54:54.396Z,8
2022-11-18T16:00:57.885Z,10
2022-11-18T16:06:55.008Z,9
2022-11-18T16:12:49.522Z,9
2022-11-18T16:18:51.133Z,10
2022-11-18T16:24:49.260Z,8
2022-11-18T16:30:56.021Z,11
2022-11-18T16:36:55.333Z,14
2022-11-18T16:42:54.493Z,12
2022-11-18T16:48:57.812Z,10
2022-11-18T16:54:59.299Z,13
2022-11-18T17:01:19.638Z,15
2022-11-18T17:06:50.326Z,10
2022-11-18T17:12:58.880Z,9
2022-11-18T17:18:49.363Z,14
2022-11-18T17:24:48.649Z,7
2022-11-18T17:30:56.580Z,6
2022-11-18T17:36:49.690Z,8
2022-11-18T17:42:51.313Z,13
2022-11-18T17:48:46.806Z,8
2022-11-18T17:54:58.086Z,10
2022-11-18T18:00:59.832Z,8
2022-11-18T18:06:44.625Z,10
2022-11-18T18:12:49.380Z,9
2022-11-18T18:18:46.738Z,8
2022-11-18T18:25:04.852Z,9
2022-11-18T18:31:00.143Z,7
2022-11-18T18:37:01.642Z,7
2022-11-18T18:42:49.125Z,6
2022-11-18T18:48:48.692Z,8
2022-11-18T18:54:49.371Z,9
2022-11-18T19:01:03.722Z,8
2022-11-18T19:07:00.930Z,7
2022-11-18T19:13:03.638Z,10
2022-11-18T19:18:55.817Z,11
2022-11-18T19:24:50.426Z,11
2022-11-18T19:30:55.750Z,12
2022-11-18T19:36:50.435Z,13
2022-11-18T19:42:51.354Z,14
2022-11-18T19:48:46.465Z,10
2022-11-18T19:54:56.149Z,12
2022-11-18T20:01:03.659Z,11
2022-11-18T20:07:01.207Z,15
2022-11-18T20:12:49.962Z,14
2022-11-18T20:18:59.572Z,14
2022-11-18T20:24:56.822Z,12
2022-11-18T20:30:49.920Z,11
2022-11-18T20:36:50.876Z,13
2022-11-18T20:42:52.793Z,12
2022-11-18T20:48:46.831Z,16
2022-11-18T20:54:47.131Z,13
2022-11-18T21:01:01.995Z,15
2022-11-18T21:06:46.136Z,16
2022-11-18T21:12:53.581Z,15
2022-11-18T21:18:47.697Z,14
2022-11-18T21:24:49.083Z,13
2022-11-18T21:31:00.279Z,12
2022-11-18T21:36:54.689Z,13
2022-11-18T21:42:50.223Z,12
2022-11-18T21:48:45.137Z,11
2022-11-18T21:54:47.411Z,12
2022-11-18T22:00:56.644Z,9
2022-11-18T22:06:47.207Z,8
2022-11-18T22:12:48.281Z,8
2022-11-18T22:18:50.327Z,8
2022-11-18T22:24:47.841Z,7
2022-11-18T22:30:58.217Z,7
2022-11-18T22:36:55.012Z,7
2022-11-18T22:42:58.974Z,6
2022-11-18T22:48:47.315Z,7
2022-11-18T22:54:49.771Z,7
2022-11-18T23:01:13.633Z,6
2022-11-18T23:07:01.565Z,5
2022-11-18T23:12:49.795Z,6
2022-11-18T23:18:51.779Z,8
2022-11-18T23:25:17.785Z,5
2022-11-18T23:31:08.343Z,5
2022-11-18T23:36:55.347Z,9
2022-11-18T23:43:05.982Z,5
2022-11-18T23:48:55.103Z,6
2022-11-18T23:55:15.903Z,6
